Ashfield, Pennsylvania
Current Conditions -  °F | °C
As of 1:51 PM on Saturday 25 Oct 2014 (Local Time) from KABE Reporting Station
Broken Clouds Broken Clouds  
Wind Chill: 67°   Ceiling: 5500
Heat Index: 67°   Visibility: 10mi
Dew Point: 42°   Wind: 17mph
Humidity: 40%   Direction: 260°W
Pressure: 29.76"   Gusts: 22mph
Location:  40.78°N, 75.71°W
Report Text: KABE 251751Z 26015G19KT 10SM BKN055 19/06 A2976 RMK AO2 SLP076 T01940056 10200 20044 57034
Loading
Personal Weather Stations






























Interactive Weather Map
Tropical Storm Tracking
New forecast layout! Learn more

10-Day Weather Forecast

Advertisements
Track Severe Weather on mobile